createdAt,value
2018-06-17T00:01:24.527Z,16.40
2018-06-17T00:03:52.851Z,16.30
2018-06-17T00:06:21.189Z,16.20
2018-06-17T00:11:17.576Z,16.10
2018-06-17T00:13:45.890Z,16.00
2018-06-17T00:16:14.622Z,15.90
2018-06-17T00:18:42.938Z,15.90
2018-06-17T00:21:11.338Z,15.80
2018-06-17T00:23:39.651Z,15.80
2018-06-17T00:26:07.978Z,15.80
2018-06-17T00:28:36.298Z,15.80
2018-06-17T00:31:04.638Z,15.90
2018-06-17T00:33:32.951Z,15.90
2018-06-17T00:36:01.276Z,15.80
2018-06-17T00:38:29.607Z,15.70
2018-06-17T00:40:57.922Z,15.60
2018-06-17T00:43:26.258Z,15.50
2018-06-17T00:45:54.674Z,15.40
2018-06-17T00:48:23.011Z,15.30
2018-06-17T00:50:51.334Z,15.40
2018-06-17T00:53:19.654Z,15.40
2018-06-17T00:55:47.980Z,15.40
2018-06-17T00:58:16.326Z,15.50
2018-06-17T01:00:44.637Z,15.50
2018-06-17T01:03:12.971Z,15.40
2018-06-17T01:05:41.270Z,15.30
2018-06-17T01:08:09.602Z,15.20
2018-06-17T01:10:37.903Z,15.10
2018-06-17T01:13:06.239Z,15.20
2018-06-17T01:15:34.562Z,15.30
2018-06-17T01:18:02.907Z,15.30
2018-06-17T01:20:31.216Z,15.30
2018-06-17T01:22:59.570Z,15.40
2018-06-17T01:25:27.869Z,15.50
2018-06-17T01:27:56.206Z,15.50
2018-06-17T01:30:24.576Z,15.50
2018-06-17T01:32:52.895Z,15.50
2018-06-17T01:35:21.202Z,15.50
2018-06-17T01:37:49.528Z,15.40
2018-06-17T01:40:17.862Z,15.20
2018-06-17T01:42:46.191Z,15.00
2018-06-17T01:45:14.502Z,14.80
2018-06-17T01:50:10.898Z,14.90
2018-06-17T01:52:39.271Z,14.90
2018-06-17T01:55:07.583Z,15.00
2018-06-17T01:57:35.927Z,15.00
2018-06-17T02:00:04.651Z,14.90
2018-06-17T02:02:32.990Z,14.70
2018-06-17T02:05:06.822Z,14.70
2018-06-17T02:07:40.669Z,14.60
2018-06-17T02:10:14.441Z,14.70
2018-06-17T02:12:42.774Z,14.60
2018-06-17T02:15:11.092Z,14.50
2018-06-17T02:17:39.423Z,14.30
2018-06-17T02:20:07.733Z,14.40
2018-06-17T02:22:36.087Z,14.50
2018-06-17T02:25:04.422Z,14.50
2018-06-17T02:27:32.789Z,14.40
2018-06-17T02:30:01.099Z,14.30
2018-06-17T02:32:29.538Z,14.40
2018-06-17T02:34:57.847Z,14.50
2018-06-17T02:37:26.267Z,14.50
2018-06-17T02:39:54.599Z,14.40
2018-06-17T02:42:22.931Z,14.30
2018-06-17T02:44:56.616Z,14.20
2018-06-17T02:47:30.274Z,14.10
2018-06-17T02:50:02.823Z,14.00
2018-06-17T02:52:36.551Z,14.00
2018-06-17T02:55:04.883Z,14.10
2018-06-17T02:57:33.219Z,14.20
2018-06-17T03:00:01.540Z,14.20
2018-06-17T03:02:29.878Z,14.20
2018-06-17T03:04:58.191Z,14.20
2018-06-17T03:07:26.504Z,14.30
2018-06-17T03:09:54.838Z,14.20
2018-06-17T03:12:23.150Z,14.20
2018-06-17T03:14:51.491Z,14.10
2018-06-17T03:17:19.833Z,14.10
2018-06-17T03:19:48.163Z,14.00
2018-06-17T03:22:16.511Z,14.00
2018-06-17T03:24:50.348Z,14.10
2018-06-17T03:27:24.096Z,14.10
2018-06-17T03:29:57.830Z,14.20
2018-06-17T03:32:31.630Z,14.20
2018-06-17T03:35:05.291Z,14.30
2018-06-17T03:37:33.610Z,14.30
2018-06-17T03:40:01.954Z,14.30
2018-06-17T03:42:30.262Z,14.40
2018-06-17T03:44:58.589Z,14.40
2018-06-17T03:47:26.903Z,14.40
2018-06-17T03:49:55.247Z,14.50
2018-06-17T03:52:23.568Z,14.60
2018-06-17T03:54:51.889Z,14.50
2018-06-17T03:57:20.198Z,14.60
2018-06-17T03:59:48.522Z,14.60
2018-06-17T04:02:16.830Z,14.50
2018-06-17T04:04:50.922Z,14.60
2018-06-17T04:07:19.238Z,14.70
2018-06-17T04:09:47.560Z,14.60
2018-06-17T04:12:15.886Z,14.70
2018-06-17T04:14:44.210Z,14.60
2018-06-17T04:17:14.670Z,14.60
2018-06-17T04:19:44.307Z,14.70
2018-06-17T04:22:12.883Z,14.70
2018-06-17T04:24:41.214Z,14.80
2018-06-17T04:27:09.762Z,14.80
2018-06-17T04:29:38.087Z,14.90
2018-06-17T04:32:06.415Z,15.00
2018-06-17T04:34:34.744Z,15.00
2018-06-17T04:37:03.059Z,14.90
2018-06-17T04:39:31.382Z,14.90
2018-06-17T04:41:59.686Z,15.00
2018-06-17T04:44:28.022Z,15.00
2018-06-17T04:46:56.322Z,15.00
2018-06-17T04:49:24.687Z,15.00
2018-06-17T04:51:52.986Z,15.00
2018-06-17T04:54:21.310Z,15.00
2018-06-17T04:56:49.614Z,15.00
2018-06-17T04:59:17.934Z,15.10
2018-06-17T05:01:46.234Z,15.20
2018-06-17T05:04:14.593Z,15.30
2018-06-17T05:06:42.898Z,15.40
2018-06-17T05:09:11.226Z,15.50
2018-06-17T05:11:39.535Z,15.60
2018-06-17T05:14:08.206Z,15.80
2018-06-17T05:16:36.506Z,15.80
2018-06-17T05:19:04.995Z,15.90
2018-06-17T05:21:33.562Z,15.90
2018-06-17T05:24:01.895Z,16.00
2018-06-17T05:26:30.203Z,16.00
2018-06-17T05:28:58.522Z,16.20
2018-06-17T05:31:26.836Z,16.20
2018-06-17T05:33:55.130Z,16.20
2018-06-17T05:36:23.450Z,16.10
2018-06-17T05:38:51.765Z,16.10
2018-06-17T05:41:20.110Z,16.00
2018-06-17T05:43:48.418Z,16.00
2018-06-17T05:46:16.801Z,16.10
2018-06-17T05:48:45.099Z,16.20
2018-06-17T05:51:13.459Z,16.30
2018-06-17T05:53:41.750Z,16.40
2018-06-17T05:56:10.066Z,16.50
2018-06-17T05:58:38.354Z,16.70
2018-06-17T06:01:06.662Z,16.70
2018-06-17T06:03:34.961Z,16.90
2018-06-17T06:06:03.283Z,17.20
2018-06-17T06:08:31.574Z,17.30
2018-06-17T06:10:59.890Z,17.50
2018-06-17T06:13:28.194Z,17.90
2018-06-17T06:15:56.519Z,18.10
2018-06-17T06:18:24.814Z,17.80
2018-06-17T06:20:53.132Z,17.90
2018-06-17T06:23:21.438Z,18.00
2018-06-17T06:25:49.765Z,17.90
2018-06-17T06:28:18.075Z,17.80
2018-06-17T06:30:46.394Z,17.90
2018-06-17T06:33:14.690Z,18.20
2018-06-17T06:35:43.006Z,18.20
2018-06-17T06:38:11.671Z,18.40
2018-06-17T06:40:39.983Z,18.50
2018-06-17T06:43:08.450Z,18.60
2018-06-17T06:45:36.810Z,18.50
2018-06-17T06:48:05.222Z,18.60
2018-06-17T06:50:33.556Z,18.70
2018-06-17T06:53:01.850Z,18.90
2018-06-17T06:55:30.194Z,18.90
2018-06-17T06:58:03.710Z,18.90
2018-06-17T07:00:32.033Z,19.00
2018-06-17T07:03:11.551Z,18.90
2018-06-17T07:05:51.237Z,18.70
2018-06-17T07:08:30.886Z,18.80
2018-06-17T07:10:59.206Z,18.60
2018-06-17T07:13:27.498Z,18.60
2018-06-17T07:16:07.126Z,18.50
2018-06-17T07:18:36.808Z,18.50
2018-06-17T07:21:05.452Z,18.60
2018-06-17T07:23:33.751Z,18.70
2018-06-17T07:26:55.550Z,18.90
2018-06-17T07:29:36.658Z,19.10
2018-06-17T07:32:04.996Z,19.10
2018-06-17T07:34:33.438Z,19.20
2018-06-17T07:37:01.759Z,19.20
2018-06-17T07:41:39.894Z,19.30
2018-06-17T07:44:08.230Z,19.40
2018-06-17T07:46:36.678Z,19.10
2018-06-17T07:49:49.042Z,19.10
2018-06-17T07:52:30.201Z,19.10
2018-06-17T07:54:58.778Z,19.00
2018-06-17T07:57:28.218Z,18.80
2018-06-17T07:59:56.519Z,18.70
2018-06-17T08:02:24.866Z,18.50
2018-06-17T08:04:53.620Z,18.70
2018-06-17T08:07:21.931Z,18.90
2018-06-17T08:09:50.243Z,18.90
2018-06-17T08:12:18.607Z,18.90
2018-06-17T08:14:46.934Z,18.90
2018-06-17T08:17:15.251Z,19.10
2018-06-17T08:19:43.550Z,19.20
2018-06-17T08:22:11.874Z,19.20
2018-06-17T08:24:40.165Z,19.50
2018-06-17T08:27:08.487Z,19.70
2018-06-17T08:29:36.785Z,19.60
2018-06-17T08:32:05.122Z,19.70
2018-06-17T08:34:33.426Z,19.80
2018-06-17T08:37:01.758Z,19.80
2018-06-17T08:39:30.067Z,19.70
2018-06-17T08:41:58.386Z,19.60
2018-06-17T08:44:26.683Z,19.70
2018-06-17T08:46:55.120Z,19.70
2018-06-17T08:49:23.343Z,19.40
2018-06-17T08:51:51.695Z,19.50
2018-06-17T08:54:20.008Z,19.70
2018-06-17T08:56:48.315Z,19.70
2018-06-17T08:59:16.615Z,19.60
2018-06-17T09:01:44.942Z,19.70
2018-06-17T09:04:13.242Z,19.80
2018-06-17T09:06:41.855Z,19.80
2018-06-17T09:09:11.575Z,19.70
2018-06-17T09:11:39.891Z,19.50
2018-06-17T09:14:08.194Z,19.40
2018-06-17T09:16:36.535Z,19.40
2018-06-17T09:19:04.857Z,19.50
2018-06-17T09:21:33.175Z,19.60
2018-06-17T09:24:01.495Z,19.60
2018-06-17T09:26:29.840Z,19.60
2018-06-17T09:28:58.278Z,19.60
2018-06-17T09:31:26.613Z,19.70
2018-06-17T09:33:54.938Z,19.70
2018-06-17T09:36:23.266Z,19.60
2018-06-17T09:38:51.587Z,19.60
2018-06-17T09:41:19.931Z,19.70
2018-06-17T09:43:48.230Z,19.60
2018-06-17T09:46:16.532Z,19.80
2018-06-17T09:48:44.915Z,20.00
2018-06-17T09:51:13.242Z,20.10
2018-06-17T09:53:41.811Z,20.20
2018-06-17T09:56:10.173Z,20.10
2018-06-17T09:58:38.492Z,20.00
2018-06-17T10:01:07.070Z,19.90
2018-06-17T10:03:35.418Z,19.90
2018-06-17T10:06:03.761Z,19.90
2018-06-17T10:08:32.086Z,19.90
2018-06-17T10:11:05.358Z,19.80
2018-06-17T10:13:35.100Z,19.70
2018-06-17T10:16:03.465Z,19.70
2018-06-17T10:18:32.058Z,19.60
2018-06-17T10:21:00.447Z,19.60
2018-06-17T10:23:28.778Z,19.60
2018-06-17T10:25:57.094Z,19.60
2018-06-17T10:28:26.458Z,19.80
2018-06-17T10:30:55.496Z,19.80
2018-06-17T10:33:23.994Z,19.80
2018-06-17T10:35:52.332Z,19.90
2018-06-17T10:38:20.662Z,20.00
2018-06-17T10:40:49.000Z,20.10
2018-06-17T10:43:18.760Z,20.20
2018-06-17T10:45:47.067Z,20.20
2018-06-17T10:48:15.746Z,20.10
2018-06-17T10:50:44.082Z,20.20
2018-06-17T10:53:12.420Z,20.20
2018-06-17T10:55:40.765Z,20.20
2018-06-17T10:58:09.046Z,20.30
2018-06-17T11:00:37.506Z,20.40
2018-06-17T11:03:05.914Z,20.50
2018-06-17T11:05:34.234Z,20.50
2018-06-17T11:08:02.587Z,20.50
2018-06-17T11:10:30.899Z,20.60
2018-06-17T11:12:59.271Z,20.60
2018-06-17T11:15:27.549Z,20.80
2018-06-17T11:17:55.862Z,20.70
2018-06-17T11:20:24.166Z,20.70
2018-06-17T11:22:52.535Z,20.80
2018-06-17T11:25:20.925Z,20.80
2018-06-17T11:27:49.251Z,20.70
2018-06-17T11:30:17.635Z,20.70
2018-06-17T11:32:45.958Z,20.60
2018-06-17T11:35:14.254Z,20.70
2018-06-17T11:37:42.571Z,20.80
2018-06-17T11:40:10.883Z,20.70
2018-06-17T11:42:39.206Z,20.60
2018-06-17T11:45:07.518Z,20.60
2018-06-17T11:47:35.837Z,20.80
2018-06-17T11:50:04.215Z,20.80
2018-06-17T11:52:32.546Z,20.90
2018-06-17T11:55:00.887Z,20.90
2018-06-17T11:57:29.198Z,20.70
2018-06-17T11:59:57.523Z,20.70
2018-06-17T12:02:25.865Z,20.70
2018-06-17T12:04:54.190Z,20.90
2018-06-17T12:07:22.495Z,20.90
2018-06-17T12:09:50.810Z,20.80
2018-06-17T12:12:19.128Z,20.70
2018-06-17T12:14:47.527Z,20.80
2018-06-17T12:17:15.769Z,20.70
2018-06-17T12:19:44.090Z,20.50
2018-06-17T12:22:12.414Z,20.40
2018-06-17T12:24:40.737Z,20.40
2018-06-17T12:27:09.070Z,20.40
2018-06-17T12:29:37.406Z,20.30
2018-06-17T12:32:05.842Z,20.40
2018-06-17T12:34:34.192Z,20.30
2018-06-17T12:37:02.506Z,20.50
2018-06-17T12:39:30.831Z,20.50
2018-06-17T12:41:59.163Z,20.60
2018-06-17T12:44:27.486Z,20.70
2018-06-17T12:46:55.873Z,20.70
2018-06-17T12:49:24.194Z,20.60
2018-06-17T12:51:52.515Z,20.70
2018-06-17T12:54:20.860Z,20.60
2018-06-17T12:56:49.176Z,20.70
2018-06-17T12:59:17.599Z,20.80
2018-06-17T13:01:45.903Z,20.70
2018-06-17T13:04:14.226Z,20.60
2018-06-17T13:06:42.542Z,20.60
2018-06-17T13:11:39.850Z,20.60
2018-06-17T13:14:09.050Z,20.40
2018-06-17T13:16:37.350Z,20.40
2018-06-17T13:19:06.314Z,20.30
2018-06-17T13:21:34.673Z,20.20
2018-06-17T13:24:03.010Z,20.10
2018-06-17T13:26:31.313Z,20.00
2018-06-17T13:28:59.659Z,19.90
2018-06-17T13:31:27.966Z,19.90
2018-06-17T13:33:56.291Z,19.90
2018-06-17T13:36:24.626Z,19.90
2018-06-17T13:38:53.038Z,19.90
2018-06-17T13:41:21.467Z,20.00
2018-06-17T13:43:49.799Z,19.90
2018-06-17T13:46:18.145Z,19.90
2018-06-17T13:48:46.463Z,19.80
2018-06-17T13:51:14.778Z,19.80
2018-06-17T13:53:43.098Z,19.90
2018-06-17T13:56:11.411Z,20.00
2018-06-17T13:58:39.846Z,20.00
2018-06-17T14:01:08.338Z,20.10
2018-06-17T14:03:36.693Z,20.20
2018-06-17T14:06:05.045Z,20.30
2018-06-17T14:08:33.447Z,20.40
2018-06-17T14:11:01.851Z,20.30
2018-06-17T14:13:30.174Z,20.30
2018-06-17T14:15:58.635Z,20.30
2018-06-17T14:18:26.947Z,20.30
2018-06-17T14:20:55.290Z,20.30
2018-06-17T14:23:23.660Z,20.30
2018-06-17T14:25:52.004Z,20.20
2018-06-17T14:28:20.431Z,20.20
2018-06-17T14:30:48.799Z,20.10
2018-06-17T14:33:17.106Z,19.90
2018-06-17T14:35:45.435Z,19.90
2018-06-17T14:40:47.207Z,19.60
2018-06-17T14:44:24.795Z,19.30
2018-06-17T14:46:58.542Z,19.30
2018-06-17T14:49:32.354Z,19.30
2018-06-17T14:52:06.188Z,19.20
2018-06-17T14:54:34.514Z,19.10
2018-06-17T14:57:02.806Z,19.10
2018-06-17T14:59:31.126Z,19.10
2018-06-17T15:01:59.526Z,18.80
2018-06-17T15:04:27.840Z,18.90
2018-06-17T15:06:56.160Z,19.10
2018-06-17T15:09:24.488Z,19.30
2018-06-17T15:11:52.854Z,19.40
2018-06-17T15:14:21.182Z,19.30
2018-06-17T15:16:49.471Z,19.20
2018-06-17T15:19:17.785Z,19.20
2018-06-17T15:21:46.103Z,19.20
2018-06-17T15:24:14.545Z,19.10
2018-06-17T15:26:42.859Z,19.00
2018-06-17T15:29:11.262Z,19.20
2018-06-17T15:31:45.094Z,19.00
2018-06-17T15:34:18.905Z,19.10
2018-06-17T15:36:52.601Z,19.20
2018-06-17T15:39:26.198Z,19.20
2018-06-17T15:41:54.522Z,19.10
2018-06-17T15:44:22.908Z,19.20
2018-06-17T15:46:51.178Z,19.00
2018-06-17T15:49:19.490Z,18.90
2018-06-17T15:51:47.862Z,18.70
2018-06-17T15:54:16.230Z,18.70
2018-06-17T15:56:44.551Z,19.00
2018-06-17T15:59:12.846Z,19.10
2018-06-17T16:01:41.183Z,18.80
2018-06-17T16:04:09.550Z,18.70
2018-06-17T16:06:37.819Z,18.60
2018-06-17T16:09:08.858Z,18.70
2018-06-17T16:11:41.407Z,18.70
2018-06-17T16:14:15.066Z,18.80
2018-06-17T16:16:48.919Z,18.90
2018-06-17T16:19:22.669Z,19.00
2018-06-17T16:21:50.994Z,18.90
2018-06-17T16:24:19.582Z,18.90
2018-06-17T16:26:47.891Z,18.80
2018-06-17T16:29:16.330Z,18.80
2018-06-17T16:31:44.650Z,18.80
2018-06-17T16:34:12.993Z,18.90
2018-06-17T16:36:41.332Z,18.90
2018-06-17T16:39:11.463Z,19.00
2018-06-17T16:41:39.870Z,19.00
2018-06-17T16:44:09.142Z,19.10
2018-06-17T16:46:37.786Z,19.10
2018-06-17T16:49:06.258Z,19.00
2018-06-17T16:51:39.971Z,18.80
2018-06-17T16:54:13.709Z,18.70
2018-06-17T16:56:47.526Z,18.60
2018-06-17T16:59:21.409Z,18.60
2018-06-17T17:01:50.469Z,18.60
2018-06-17T17:04:18.790Z,18.60
2018-06-17T17:09:15.302Z,18.50
2018-06-17T17:11:43.686Z,18.50
2018-06-17T17:14:12.446Z,18.60
2018-06-17T17:16:41.654Z,18.70
2018-06-17T17:19:10.214Z,18.80
2018-06-17T17:21:38.635Z,18.70
2018-06-17T17:24:06.951Z,18.70
2018-06-17T17:26:35.278Z,18.80
2018-06-17T17:29:03.581Z,18.90
2018-06-17T17:31:37.138Z,19.00
2018-06-17T17:34:10.743Z,18.90
2018-06-17T17:36:44.554Z,18.60
2018-06-17T17:39:18.249Z,18.50
2018-06-17T17:41:46.603Z,18.50
2018-06-17T17:44:15.127Z,18.50
2018-06-17T17:46:48.962Z,18.40
2018-06-17T17:49:17.283Z,18.30
2018-06-17T17:51:45.692Z,18.30
2018-06-17T17:54:14.113Z,18.30
2018-06-17T17:56:42.528Z,18.30
2018-06-17T17:59:10.839Z,18.40
2018-06-17T18:01:39.306Z,18.40
2018-06-17T18:04:07.620Z,18.40
2018-06-17T18:06:35.935Z,18.40
2018-06-17T18:09:07.103Z,18.40
2018-06-17T18:11:35.466Z,18.40
2018-06-17T18:14:03.762Z,18.20
2018-06-17T18:16:32.114Z,18.10
2018-06-17T18:19:00.410Z,18.10
2018-06-17T18:21:28.726Z,18.10
2018-06-17T18:23:57.031Z,18.10
2018-06-17T18:26:30.829Z,18.10
2018-06-17T18:29:04.467Z,18.10
2018-06-17T18:31:38.262Z,18.10
2018-06-17T18:34:12.104Z,18.00
2018-06-17T18:36:40.512Z,18.00
2018-06-17T18:39:08.954Z,18.00
2018-06-17T18:41:37.291Z,18.10
2018-06-17T18:44:05.594Z,18.20
2018-06-17T18:46:33.951Z,18.20
2018-06-17T18:49:02.429Z,18.10
2018-06-17T18:51:30.706Z,18.00
2018-06-17T18:53:59.155Z,18.00
2018-06-17T18:56:27.474Z,18.00
2018-06-17T18:58:55.826Z,17.80
2018-06-17T19:01:24.293Z,17.60
2018-06-17T19:03:52.581Z,17.60
2018-06-17T19:06:20.935Z,17.60
2018-06-17T19:09:58.687Z,17.70
2018-06-17T19:12:32.359Z,17.70
2018-06-17T19:15:05.967Z,17.70
2018-06-17T19:17:39.790Z,17.70
2018-06-17T19:20:08.114Z,17.70
2018-06-17T19:22:36.726Z,17.70
2018-06-17T19:25:05.195Z,17.80
2018-06-17T19:27:33.519Z,17.80
2018-06-17T19:30:01.855Z,17.70
2018-06-17T19:32:30.193Z,17.70
2018-06-17T19:34:58.506Z,17.70
2018-06-17T19:37:26.835Z,17.70
2018-06-17T19:39:55.599Z,17.70
2018-06-17T19:42:23.927Z,17.60
2018-06-17T19:44:52.385Z,17.70
2018-06-17T19:47:20.747Z,17.50
2018-06-17T19:49:54.369Z,17.50
2018-06-17T19:52:28.154Z,17.60
2018-06-17T19:55:01.936Z,17.60
2018-06-17T19:57:35.591Z,17.50
2018-06-17T20:00:09.483Z,17.40
2018-06-17T20:02:37.815Z,17.20
2018-06-17T20:05:06.578Z,17.10
2018-06-17T20:07:35.723Z,16.90
2018-06-17T20:10:04.238Z,16.80
2018-06-17T20:12:32.574Z,16.80
2018-06-17T20:15:00.919Z,16.60
2018-06-17T20:17:29.401Z,16.40
2018-06-17T20:19:57.754Z,16.40
2018-06-17T20:22:26.094Z,16.30
2018-06-17T20:24:54.419Z,16.40
2018-06-17T20:27:22.786Z,16.40
2018-06-17T20:29:51.126Z,16.40
2018-06-17T20:32:24.833Z,16.40
2018-06-17T20:34:58.674Z,16.30
2018-06-17T20:38:31.266Z,16.30
2018-06-17T20:41:04.966Z,16.20
2018-06-17T20:43:38.598Z,16.10
2018-06-17T20:46:07.082Z,16.00
2018-06-17T20:48:35.443Z,16.10
2018-06-17T20:51:03.814Z,16.20
2018-06-17T20:53:32.154Z,16.30
2018-06-17T20:56:00.447Z,16.30
2018-06-17T20:58:28.766Z,16.40
2018-06-17T21:00:57.066Z,16.30
2018-06-17T21:03:25.387Z,16.20
2018-06-17T21:05:53.807Z,16.20
2018-06-17T21:08:22.130Z,16.20
2018-06-17T21:10:50.425Z,16.30
2018-06-17T21:13:19.202Z,16.30
2018-06-17T21:15:47.507Z,16.30
2018-06-17T21:18:20.046Z,16.30
2018-06-17T21:20:53.789Z,16.20
2018-06-17T21:23:27.626Z,16.20
2018-06-17T21:26:01.350Z,16.20
2018-06-17T21:28:29.702Z,16.20
2018-06-17T21:30:58.006Z,16.10
2018-06-17T21:33:26.337Z,16.20
2018-06-17T21:35:54.639Z,16.20
2018-06-17T21:38:22.962Z,16.20
2018-06-17T21:40:51.258Z,16.30
2018-06-17T21:43:19.574Z,16.20
2018-06-17T21:45:47.887Z,16.20
2018-06-17T21:50:44.272Z,16.10
2018-06-17T21:53:12.584Z,16.10
2018-06-17T21:55:40.919Z,16.10
2018-06-17T21:58:09.227Z,16.20
2018-06-17T22:00:37.644Z,16.20
2018-06-17T22:03:05.953Z,16.10
2018-06-17T22:05:34.371Z,16.10
2018-06-17T22:08:07.989Z,16.10
2018-06-17T22:10:41.846Z,16.20
2018-06-17T22:13:10.252Z,16.10
2018-06-17T22:15:44.042Z,16.20
2018-06-17T22:18:12.350Z,16.10
2018-06-17T22:20:40.713Z,16.00
2018-06-17T22:23:09.057Z,16.00
2018-06-17T22:25:37.389Z,16.00
2018-06-17T22:28:05.701Z,16.10
2018-06-17T22:30:34.035Z,16.10
2018-06-17T22:33:02.360Z,16.10
2018-06-17T22:35:30.694Z,16.00
2018-06-17T22:37:59.002Z,16.00
2018-06-17T22:40:27.339Z,16.00
2018-06-17T22:42:55.650Z,15.90
2018-06-17T22:45:23.978Z,15.90
2018-06-17T22:47:59.447Z,15.90
2018-06-17T22:50:27.967Z,15.90
2018-06-17T22:53:07.638Z,16.00
2018-06-17T22:55:35.959Z,16.00
2018-06-17T22:58:09.578Z,16.00
2018-06-17T23:00:43.343Z,16.00
2018-06-17T23:03:17.038Z,15.90
2018-06-17T23:05:50.906Z,15.90
2018-06-17T23:08:24.586Z,15.90
2018-06-17T23:10:52.926Z,16.00
2018-06-17T23:13:21.243Z,16.00
2018-06-17T23:15:49.578Z,15.90
2018-06-17T23:18:17.885Z,15.80
2018-06-17T23:23:14.259Z,15.80
2018-06-17T23:25:42.586Z,15.80
2018-06-17T23:28:10.978Z,15.90
2018-06-17T23:30:39.361Z,15.90
2018-06-17T23:33:07.631Z,16.00
2018-06-17T23:35:35.983Z,16.00
2018-06-17T23:38:04.286Z,16.00
2018-06-17T23:40:32.605Z,16.00
2018-06-17T23:43:00.914Z,16.00
2018-06-17T23:45:29.239Z,16.00
2018-06-17T23:48:02.927Z,16.00
2018-06-17T23:50:46.306Z,15.90
2018-06-17T23:53:20.083Z,15.90
2018-06-17T23:55:53.942Z,15.90
2018-06-17T23:58:22.252Z,15.80
